Time;durP1;ratioP1;P1;durP2;ratioP2;P2;SDS_P1;SDS_P2;PMS_P1;PMS_P2;Temp;Humidity;BMP_temperature;BMP_pressure;BME280_temperature;BME280_humidity;BME280_pressure;Samples;Min_cycle;Max_cycle;Signal;HPM_P1;HPM_P2
2022/10/04 17:22:42;;;;;;;0.60;0.60;;;20.80;95.50;;;;;;5043414;28;20134;-80
2022/10/04 17:25:27;;;;;;;1.25;0.57;;;20.60;96.90;;;;;;5017533;28;20095;-80
2022/10/04 17:27:59;;;;;;;0.77;0.70;;;20.50;97.70;;;;;;4962079;27;20041;-80
2022/10/04 17:30:40;;;;;;;0.60;0.60;;;20.30;98.30;;;;;;4977895;28;20040;-80
2022/10/04 17:33:11;;;;;;;;;;;20.30;98.50;;;;;;5018737;28;20079;-81
2022/10/04 17:35:56;;;;;;;0.70;0.43;;;20.10;98.90;;;;;;5026772;28;19909;-84
2022/10/04 17:38:43;;;;;;;0.45;0.45;;;20.10;98.20;;;;;;5027340;28;20402;-84
2022/10/04 17:41:17;;;;;;;0.85;0.60;;;20.00;99.10;;;;;;5027244;28;20032;-85
2022/10/04 17:43:54;;;;;;;0.55;0.55;;;19.80;99.70;;;;;;5026400;28;20030;-85
2022/10/04 17:46:29;;;;;;;1.50;0.70;;;19.80;99.90;;;;;;5026857;28;20033;-86
2022/10/04 17:55:16;;;;;;;0.60;0.60;;;19.60;99.90;;;;;;5022307;28;19916;-85
2022/10/04 17:58:14;;;;;;;0.90;0.70;;;19.50;99.90;;;;;;5022243;28;20045;-85
2022/10/04 18:01:08;;;;;;;0.60;0.60;;;19.40;99.90;;;;;;5019719;28;20034;-85
2022/10/04 18:04:09;;;;;;;0.60;0.60;;;19.30;99.90;;;;;;5024337;28;20021;-85
2022/10/04 18:06:38;;;;;;;0.60;0.60;;;19.10;99.90;;;;;;5005352;28;20026;-85
2022/10/04 18:09:09;;;;;;;0.75;0.75;;;19.10;99.90;;;;;;5004951;28;20217;-85
2022/10/04 18:11:46;;;;;;;0.70;0.70;;;18.80;99.90;;;;;;4994546;28;20112;-85
2022/10/04 18:14:12;;;;;;;0.80;0.75;;;18.60;99.90;;;;;;4995484;28;20100;-85
2022/10/04 18:16:54;;;;;;;0.80;0.80;;;18.50;99.90;;;;;;5007406;28;20519;-85
2022/10/04 18:19:41;;;;;;;0.95;0.85;;;18.70;99.90;;;;;;5002128;28;20034;-85
2022/10/04 18:22:13;;;;;;;0.75;0.75;;;18.70;99.90;;;;;;5001371;28;20053;-86
2022/10/04 18:24:41;;;;;;;1.23;0.88;;;18.50;99.90;;;;;;4984907;28;20069;-85
2022/10/04 18:27:17;;;;;;;0.90;0.90;;;18.30;99.90;;;;;;5002676;28;20038;-85
2022/10/04 18:29:59;;;;;;;1.13;1.02;;;18.00;99.90;;;;;;4996414;28;20034;-85
2022/10/04 18:32:24;;;;;;;0.82;0.82;;;18.00;99.90;;;;;;4987646;28;20901;-85
2022/10/04 18:34:54;;;;;;;0.88;0.88;;;17.80;99.90;;;;;;4995533;28;20133;-85
2022/10/04 18:37:40;;;;;;;1.33;1.02;;;17.70;99.90;;;;;;4976511;28;20034;-85
2022/10/04 18:40:25;;;;;;;1.02;0.90;;;17.80;99.90;;;;;;4991741;28;20053;-85
2022/10/04 18:42:56;;;;;;;1.70;1.00;;;17.90;99.90;;;;;;4998550;28;20018;-85
2022/10/04 18:45:25;;;;;;;1.02;0.88;;;18.00;99.90;;;;;;5005259;28;20033;-85
2022/10/04 18:47:51;;;;;;;1.08;0.93;;;18.00;99.90;;;;;;5012077;28;20031;-85
2022/10/04 18:50:20;;;;;;;0.80;0.80;;;18.00;99.90;;;;;;5000251;28;20092;-85
2022/10/04 18:53:18;;;;;;;1.25;0.98;;;17.90;99.90;;;;;;5010942;28;20479;-85
2022/10/04 18:56:02;;;;;;;1.15;1.05;;;17.80;99.90;;;;;;5009925;28;20079;-85
2022/10/04 19:02:10;;;;;;;1.33;1.23;;;17.80;99.90;;;;;;5007493;28;20129;-85
2022/10/04 19:04:48;;;;;;;2.40;1.63;;;17.80;99.90;;;;;;5008838;28;20030;-84
2022/10/04 19:07:15;;;;;;;1.10;1.00;;;17.60;99.90;;;;;;5009667;28;20026;-85
2022/10/04 19:10:00;;;;;;;2.25;1.02;;;17.30;99.90;;;;;;5026525;28;20166;-85
2022/10/04 19:12:38;;;;;;;3.22;1.20;;;17.10;99.90;;;;;;5010530;28;20037;-85
2022/10/04 19:15:27;;;;;;;1.10;1.00;;;16.80;99.90;;;;;;4999695;28;20502;-85
2022/10/04 19:18:24;;;;;;;1.75;1.13;;;17.00;99.90;;;;;;4997179;28;20065;-85
2022/10/04 19:21:18;;;;;;;1.38;1.27;;;17.10;99.90;;;;;;5010866;28;20073;-85
2022/10/04 19:24:12;;;;;;;1.13;1.02;;;17.00;99.90;;;;;;5006253;28;20052;-85
2022/10/04 19:26:45;;;;;;;1.58;1.20;;;17.20;99.90;;;;;;5004599;28;20030;-85
2022/10/04 19:29:49;;;;;;;1.83;1.45;;;17.10;99.90;;;;;;5005362;28;20027;-85
2022/10/04 19:32:52;;;;;;;2.92;1.50;;;16.90;99.90;;;;;;5004818;28;20569;-85
2022/10/04 19:35:57;;;;;;;1.88;1.60;;;16.90;99.90;;;;;;5004202;28;20265;-85
2022/10/04 19:38:54;;;;;;;1.77;1.27;;;17.00;99.90;;;;;;5026510;28;20669;-85
2022/10/04 19:41:26;;;;;;;2.45;2.10;;;17.10;99.90;;;;;;5026986;28;20173;-86
2022/10/04 19:43:54;;;;;;;2.78;1.70;;;17.10;99.90;;;;;;5022689;28;20063;-85
2022/10/04 19:46:56;;;;;;;3.38;1.90;;;17.10;99.90;;;;;;5027349;28;20511;-85
2022/10/04 19:49:43;;;;;;;2.03;1.52;;;16.90;99.90;;;;;;5027528;28;20144;-85
2022/10/04 19:52:25;;;;;;;2.45;1.83;;;16.40;99.90;;;;;;5025401;28;20025;-85
2022/10/04 19:55:14;;;;;;;2.88;2.00;;;16.30;99.90;;;;;;5027095;28;20033;-85
2022/10/04 19:57:41;;;;;;;2.55;1.50;;;16.50;99.90;;;;;;5027720;28;20111;-85
2022/10/04 20:00:12;;;;;;;3.63;1.85;;;16.80;99.90;;;;;;5027229;28;20036;-85
2022/10/04 20:02:42;;;;;;;1.63;1.52;;;16.80;99.90;;;;;;5027572;28;20124;-85
2022/10/04 20:05:13;;;;;;;2.42;1.70;;;16.60;99.90;;;;;;5027204;28;20139;-85
2022/10/04 20:07:39;;;;;;;1.90;1.70;;;16.40;99.90;;;;;;5027311;28;20259;-85
2022/10/04 20:10:29;;;;;;;2.13;1.88;;;16.60;99.90;;;;;;5003654;28;20212;-85
2022/10/04 20:13:20;;;;;;;1.60;1.50;;;16.30;99.90;;;;;;5009729;28;20095;-85
2022/10/04 20:15:50;;;;;;;1.70;1.23;;;15.90;99.90;;;;;;5023905;28;20084;-85
2022/10/04 20:18:31;;;;;;;1.30;1.20;;;16.00;99.90;;;;;;5008832;28;20475;-85
2022/10/04 20:20:57;;;;;;;1.23;1.13;;;16.10;99.90;;;;;;5009295;28;20124;-85
2022/10/04 20:23:38;;;;;;;1.35;1.25;;;16.10;99.90;;;;;;5010194;28;20311;-85
2022/10/04 20:26:50;;;;;;;1.42;1.33;;;15.70;99.90;;;;;;5007514;28;20045;-85
2022/10/04 20:29:37;;;;;;;1.85;1.20;;;15.70;99.90;;;;;;5009261;28;20029;-85
2022/10/04 20:32:33;;;;;;;1.73;1.50;;;15.80;99.90;;;;;;5003236;28;20033;-85
2022/10/04 20:35:00;;;;;;;1.45;1.35;;;16.00;99.90;;;;;;4996379;28;20037;-85
2022/10/04 20:37:52;;;;;;;1.40;1.30;;;16.10;99.90;;;;;;5022601;28;20097;-85
2022/10/04 20:40:21;;;;;;;1.48;1.38;;;16.10;99.90;;;;;;5000002;28;20042;-85
2022/10/04 20:43:26;;;;;;;1.30;1.20;;;15.90;99.90;;;;;;5002539;28;20026;-85
2022/10/04 20:45:53;;;;;;;3.05;1.30;;;15.60;99.90;;;;;;4948289;28;20062;-85
2022/10/04 20:48:27;;;;;;;1.77;1.65;;;15.40;99.90;;;;;;4948309;29;20024;-85
2022/10/04 20:50:53;;;;;;;3.22;1.40;;;15.70;99.90;;;;;;4946328;29;20043;-85
2022/10/04 20:53:25;;;;;;;1.08;1.08;;;15.70;99.90;;;;;;4948018;29;20039;-85
2022/10/04 20:56:10;;;;;;;1.80;1.45;;;15.60;99.90;;;;;;4947309;28;20035;-86
2022/10/04 20:58:36;;;;;;;1.10;1.05;;;15.70;99.90;;;;;;4943512;29;20122;-85
2022/10/04 21:01:54;;;;;;;1.55;1.20;;;15.70;99.90;;;;;;4942854;29;20108;-85
2022/10/04 21:06:56;;;;;;;1.40;1.30;;;15.30;99.90;;;;;;4947948;29;20566;-86
2022/10/04 21:09:22;;;;;;;1.60;1.05;;;15.00;99.90;;;;;;4932404;29;20541;-85
2022/10/04 21:11:52;;;;;;;2.58;1.35;;;15.30;99.90;;;;;;4947453;29;20050;-86
2022/10/04 21:14:26;;;;;;;1.67;1.27;;;15.00;99.90;;;;;;4943889;28;20035;-86
2022/10/04 21:16:53;;;;;;;1.80;1.20;;;14.70;99.90;;;;;;4972291;28;20033;-85
2022/10/04 21:19:31;;;;;;;1.80;1.27;;;15.10;99.90;;;;;;5007692;28;20101;-85
2022/10/04 21:21:57;;;;;;;1.90;1.50;;;15.30;99.90;;;;;;4999026;28;20281;-85
2022/10/04 21:24:45;;;;;;;1.95;1.00;;;15.00;99.90;;;;;;5023614;28;20061;-86
2022/10/04 21:27:24;;;;;;;1.35;1.00;;;14.90;99.90;;;;;;5009064;28;20103;-85
2022/10/04 21:29:52;;;;;;;1.45;1.35;;;15.10;99.90;;;;;;5008046;28;20125;-86
2022/10/04 21:32:21;;;;;;;1.17;1.08;;;15.10;99.90;;;;;;5005579;28;20040;-85
2022/10/04 21:34:47;;;;;;;1.83;1.55;;;15.20;99.90;;;;;;5005914;28;20025;-85
2022/10/04 21:37:13;;;;;;;2.05;1.33;;;15.20;99.90;;;;;;5003961;28;20039;-85
2022/10/04 21:39:39;;;;;;;2.03;1.25;;;15.10;99.90;;;;;;5002859;28;20027;-85
2022/10/04 21:42:05;;;;;;;2.30;1.35;;;14.90;99.90;;;;;;5002186;28;20030;-86
2022/10/04 21:44:30;;;;;;;1.65;1.38;;;14.80;99.90;;;;;;5004421;28;20499;-85
2022/10/04 21:46:56;;;;;;;2.55;1.50;;;14.70;99.90;;;;;;5001369;28;20089;-85
2022/10/04 21:49:22;;;;;;;1.27;1.17;;;14.80;99.90;;;;;;5003643;28;20030;-86
2022/10/04 21:51:47;;;;;;;1.38;1.27;;;14.70;99.90;;;;;;4996852;28;20497;-86
2022/10/04 21:54:13;;;;;;;1.40;1.30;;;14.70;99.90;;;;;;4995214;28;20022;-85
2022/10/04 21:56:39;;;;;;;1.50;1.40;;;14.90;99.90;;;;;;5001277;28;20364;-85
2022/10/04 21:59:04;;;;;;;1.60;1.38;;;14.60;99.90;;;;;;5006810;28;20519;-85
2022/10/04 22:01:30;;;;;;;3.10;1.73;;;14.10;99.90;;;;;;5008559;28;20511;-86
2022/10/04 22:03:56;;;;;;;2.33;1.63;;;14.00;99.90;;;;;;5008398;28;20542;-85
2022/10/04 22:06:21;;;;;;;1.75;1.65;;;14.10;99.90;;;;;;5022775;28;20464;-86
2022/10/04 22:08:47;;;;;;;1.95;1.50;;;14.10;99.90;;;;;;5011140;28;20018;-85
2022/10/04 22:11:13;;;;;;;2.15;1.67;;;14.20;99.90;;;;;;5011233;28;20038;-85
2022/10/04 22:13:39;;;;;;;1.55;1.38;;;14.50;99.90;;;;;;5012503;28;20100;-86
2022/10/04 22:16:05;;;;;;;1.35;1.25;;;14.60;99.90;;;;;;5010199;28;20041;-85
2022/10/04 22:18:31;;;;;;;2.17;1.50;;;14.80;99.90;;;;;;5009344;28;20030;-85
2022/10/04 22:20:58;;;;;;;1.50;1.38;;;14.70;99.90;;;;;;5010157;28;20048;-85
2022/10/04 22:23:26;;;;;;;1.88;1.63;;;14.70;99.90;;;;;;5009276;28;20087;-83
2022/10/04 22:25:53;;;;;;;2.70;1.20;;;14.50;99.90;;;;;;5007433;28;20562;-85
2022/10/04 22:28:19;;;;;;;1.30;1.20;;;14.30;99.90;;;;;;5027778;28;20510;-87
2022/10/04 22:30:45;;;;;;;1.40;1.30;;;14.20;99.90;;;;;;5013011;28;20038;-87
2022/10/04 22:33:38;;;;;;;2.05;1.42;;;14.30;99.90;;;;;;5013877;28;20496;-86
2022/10/04 22:36:23;;;;;;;1.95;1.52;;;14.40;99.90;;;;;;5014114;28;20146;-87
2022/10/04 22:38:55;;;;;;;1.75;1.55;;;14.50;99.90;;;;;;5012957;28;20488;-87
2022/10/04 22:41:21;;;;;;;;;;;14.40;99.90;;;;;;5028824;28;20473;-86
2022/10/04 22:43:48;;;;;;;1.48;1.38;;;14.20;99.90;;;;;;5013740;28;19905;-87
2022/10/04 22:46:19;;;;;;;1.50;1.40;;;14.00;99.90;;;;;;5013758;28;20034;-86
2022/10/04 22:48:46;;;;;;;1.50;1.40;;;14.00;99.90;;;;;;5013691;28;20037;-86
2022/10/04 22:51:13;;;;;;;1.63;1.52;;;14.00;99.90;;;;;;5013664;28;20053;-86
2022/10/04 22:53:46;;;;;;;1.92;1.60;;;14.00;99.90;;;;;;5013495;28;20088;-86
2022/10/04 22:56:13;;;;;;;2.38;1.40;;;14.10;99.90;;;;;;5013829;28;20030;-87
2022/10/04 22:58:40;;;;;;;1.60;1.35;;;14.10;99.90;;;;;;5012932;28;20054;-86
2022/10/04 23:01:14;;;;;;;1.58;1.48;;;14.10;99.90;;;;;;5012948;28;20029;-86
2022/10/04 23:03:45;;;;;;;1.42;1.10;;;13.90;99.90;;;;;;5015635;28;20052;-87
2022/10/04 23:06:14;;;;;;;1.38;1.17;;;13.90;99.90;;;;;;5013259;28;20018;-87
2022/10/04 23:08:41;;;;;;;1.40;1.30;;;13.90;99.90;;;;;;5012924;28;20034;-87
2022/10/04 23:11:07;;;;;;;1.52;1.42;;;13.70;99.90;;;;;;5012966;28;20057;-87
2022/10/04 23:13:33;;;;;;;1.55;1.45;;;13.70;99.90;;;;;;5011672;28;20093;-87
2022/10/04 23:16:09;;;;;;;1.30;1.20;;;13.70;99.90;;;;;;5025948;28;20061;-86
2022/10/04 23:18:35;;;;;;;1.63;1.17;;;13.80;99.90;;;;;;5012738;28;20026;-87
2022/10/04 23:21:01;;;;;;;1.55;1.40;;;13.90;99.90;;;;;;5012141;28;20060;-87
2022/10/04 23:23:29;;;;;;;2.15;1.42;;;14.00;99.90;;;;;;5012928;28;20033;-87
2022/10/04 23:25:55;;;;;;;3.03;1.52;;;14.00;99.90;;;;;;5012854;28;20030;-87
2022/10/04 23:28:21;;;;;;;1.45;1.27;;;14.00;99.90;;;;;;5012636;28;20408;-86
2022/10/04 23:31:04;;;;;;;1.60;1.50;;;13.90;99.90;;;;;;5013055;28;20105;-87
2022/10/04 23:33:29;;;;;;;2.20;1.10;;;14.00;99.90;;;;;;5028074;28;20033;-86
2022/10/04 23:35:56;;;;;;;1.20;1.10;;;14.00;99.90;;;;;;5012279;28;20562;-86
2022/10/04 23:38:23;;;;;;;1.70;1.27;;;14.00;99.90;;;;;;5012866;28;20022;-86
2022/10/04 23:40:49;;;;;;;1.10;1.00;;;14.00;99.90;;;;;;5012151;28;20033;-86
2022/10/04 23:43:23;;;;;;;1.30;1.20;;;14.00;99.90;;;;;;5012420;28;20022;-86
2022/10/04 23:45:54;;;;;;;1.20;1.00;;;14.00;99.90;;;;;;5004719;28;20018;-85
2022/10/04 23:48:31;;;;;;;1.30;1.00;;;14.00;99.90;;;;;;5027397;28;20076;-86
2022/10/04 23:50:58;;;;;;;0.95;0.90;;;13.90;99.90;;;;;;5012337;28;20029;-87
2022/10/04 23:53:30;;;;;;;1.27;1.15;;;13.60;99.90;;;;;;5027626;28;20044;-86
2022/10/04 23:56:02;;;;;;;1.27;1.17;;;13.50;99.90;;;;;;5012458;28;20040;-87
2022/10/04 23:58:38;;;;;;;1.30;1.10;;;13.40;99.90;;;;;;5012097;28;20029;-86
